createdAt,value
2018-06-14T00:02:19.243Z,12.20
2018-06-14T00:04:49.769Z,12.10
2018-06-14T00:07:30.652Z,12.10
2018-06-14T00:10:12.773Z,12.10
2018-06-14T00:12:41.760Z,12.20
2018-06-14T00:15:11.018Z,12.20
2018-06-14T00:20:30.088Z,12.20
2018-06-14T00:23:02.189Z,12.10
2018-06-14T00:25:31.855Z,12.00
2018-06-14T00:28:01.478Z,12.00
2018-06-14T00:30:30.113Z,12.00
2018-06-14T00:33:00.651Z,12.00
2018-06-14T00:35:29.333Z,12.00
2018-06-14T00:38:01.705Z,12.00
2018-06-14T00:40:35.893Z,11.90
2018-06-14T00:43:14.694Z,11.90
2018-06-14T00:48:54.095Z,11.90
2018-06-14T00:51:29.885Z,11.90
2018-06-14T00:53:59.571Z,11.90
2018-06-14T00:56:41.949Z,11.90
2018-06-14T00:59:23.868Z,11.90
2018-06-14T01:05:09.141Z,11.80
2018-06-14T01:07:42.284Z,11.80
2018-06-14T01:13:10.317Z,11.60
2018-06-14T01:18:17.199Z,11.70
2018-06-14T01:20:58.539Z,11.70
2018-06-14T01:23:39.097Z,11.60
2018-06-14T01:26:20.723Z,11.60
2018-06-14T01:29:03.815Z,11.60
2018-06-14T01:31:44.262Z,11.60
2018-06-14T01:34:22.448Z,11.60
2018-06-14T01:36:51.482Z,11.60
2018-06-14T01:42:17.432Z,11.50
2018-06-14T01:47:46.731Z,11.50
2018-06-14T01:50:29.461Z,11.40
2018-06-14T01:53:18.426Z,11.40
2018-06-14T01:58:51.500Z,11.30
2018-06-14T02:01:26.646Z,11.30
2018-06-14T02:04:01.119Z,11.40
2018-06-14T02:06:35.993Z,11.30
2018-06-14T02:09:06.937Z,11.30
2018-06-14T02:11:35.577Z,11.20
2018-06-14T02:17:14.667Z,11.20
2018-06-14T02:22:18.517Z,11.10
2018-06-14T02:24:48.126Z,11.20
2018-06-14T02:27:17.809Z,11.10
2018-06-14T02:29:50.451Z,11.10
2018-06-14T02:32:20.984Z,11.10
2018-06-14T02:34:55.413Z,11.10
2018-06-14T02:37:24.233Z,11.10
2018-06-14T02:42:27.700Z,11.00
2018-06-14T02:44:57.269Z,11.00
2018-06-14T02:50:12.832Z,10.90
2018-06-14T02:52:50.981Z,10.90
2018-06-14T02:58:01.284Z,11.00
2018-06-14T03:00:34.054Z,10.90
2018-06-14T03:03:02.694Z,10.80
2018-06-14T03:05:44.534Z,10.90
2018-06-14T03:08:18.221Z,10.90
2018-06-14T03:10:46.885Z,10.90
2018-06-14T03:13:15.515Z,10.80
2018-06-14T03:15:44.268Z,10.80
2018-06-14T03:18:12.961Z,10.80
2018-06-14T03:20:49.234Z,10.80
2018-06-14T03:23:17.980Z,10.80
2018-06-14T03:25:49.791Z,10.80
2018-06-14T03:28:25.179Z,10.90
2018-06-14T03:31:08.536Z,10.90
2018-06-14T03:33:37.327Z,10.90
2018-06-14T03:36:06.013Z,10.80
2018-06-14T03:38:38.672Z,10.80
2018-06-14T03:41:09.230Z,10.80
2018-06-14T03:43:40.043Z,10.80
2018-06-14T03:46:08.721Z,10.80
2018-06-14T03:48:39.241Z,10.90
2018-06-14T03:51:11.960Z,10.90
2018-06-14T03:53:40.581Z,11.00
2018-06-14T03:56:09.332Z,11.00
2018-06-14T03:58:38.030Z,11.00
2018-06-14T04:01:06.974Z,11.10
2018-06-14T04:03:36.629Z,11.10
2018-06-14T04:06:09.303Z,11.20
2018-06-14T04:08:38.173Z,11.20
2018-06-14T04:11:19.741Z,11.30
2018-06-14T04:13:49.479Z,11.40
2018-06-14T04:16:21.881Z,11.50
2018-06-14T04:19:03.019Z,11.60
2018-06-14T04:21:36.996Z,11.70
2018-06-14T04:24:06.701Z,11.70
2018-06-14T04:26:36.255Z,11.70
2018-06-14T04:29:08.079Z,11.80
2018-06-14T04:31:37.675Z,11.80
2018-06-14T04:34:07.227Z,11.80
2018-06-14T04:36:41.645Z,11.80
2018-06-14T04:39:11.635Z,11.80
2018-06-14T04:41:42.275Z,11.80
2018-06-14T04:44:13.067Z,11.80
2018-06-14T04:46:41.723Z,11.90
2018-06-14T04:49:22.341Z,11.90
2018-06-14T04:52:02.945Z,11.90
2018-06-14T04:54:31.733Z,11.90
2018-06-14T04:57:01.377Z,11.90
2018-06-14T04:59:31.905Z,12.00
2018-06-14T05:02:00.589Z,12.00
2018-06-14T05:04:29.269Z,12.10
2018-06-14T05:06:57.951Z,12.10
2018-06-14T05:09:26.676Z,12.20
2018-06-14T05:11:55.341Z,12.30
2018-06-14T05:14:27.079Z,12.50
2018-06-14T05:16:55.927Z,12.60
2018-06-14T05:19:25.080Z,12.80
2018-06-14T05:21:53.768Z,13.00
2018-06-14T05:24:25.179Z,13.20
2018-06-14T05:26:53.908Z,13.40
2018-06-14T05:29:25.723Z,13.50
2018-06-14T05:31:54.380Z,13.60
2018-06-14T05:34:39.198Z,13.70
2018-06-14T05:37:08.008Z,13.80
2018-06-14T05:39:38.493Z,13.90
2018-06-14T05:42:11.158Z,14.00
2018-06-14T05:44:39.960Z,14.10
2018-06-14T05:47:09.537Z,14.20
2018-06-14T05:49:38.169Z,14.30
2018-06-14T05:52:06.904Z,14.40
2018-06-14T05:54:35.557Z,14.40
2018-06-14T05:57:15.237Z,14.50
2018-06-14T05:59:44.034Z,14.50
2018-06-14T06:02:12.737Z,14.50
2018-06-14T06:04:44.754Z,14.50
2018-06-14T06:07:13.430Z,14.50
2018-06-14T06:09:45.225Z,14.50
2018-06-14T06:12:13.850Z,14.50
2018-06-14T06:14:42.560Z,14.40
2018-06-14T06:17:11.245Z,14.50
2018-06-14T06:19:39.938Z,14.50
2018-06-14T06:22:08.587Z,14.50
2018-06-14T06:24:38.246Z,14.50
2018-06-14T06:27:09.988Z,14.60
2018-06-14T06:29:43.694Z,14.70
2018-06-14T06:32:17.819Z,14.90
2018-06-14T06:34:49.691Z,15.10
2018-06-14T06:37:35.099Z,15.10
2018-06-14T06:40:07.633Z,15.30
2018-06-14T06:42:36.238Z,15.50
2018-06-14T06:45:06.572Z,15.60
2018-06-14T06:47:37.310Z,15.80
2018-06-14T06:50:13.894Z,16.00
2018-06-14T06:52:44.446Z,16.10
2018-06-14T06:58:05.492Z,16.40
2018-06-14T07:00:54.072Z,16.40
2018-06-14T07:03:29.288Z,16.60
2018-06-14T07:06:02.405Z,16.70
2018-06-14T07:08:32.851Z,16.80
2018-06-14T07:11:07.510Z,16.90
2018-06-14T07:13:36.099Z,17.00
2018-06-14T07:16:06.914Z,17.20
2018-06-14T07:18:36.506Z,17.40
2018-06-14T07:21:08.566Z,17.50
2018-06-14T07:23:43.138Z,17.60
2018-06-14T07:26:26.142Z,17.60
2018-06-14T07:29:07.102Z,17.80
2018-06-14T07:31:37.691Z,18.00
2018-06-14T07:34:11.659Z,18.10
2018-06-14T07:36:45.835Z,18.10
2018-06-14T07:39:29.421Z,18.20
2018-06-14T07:42:03.498Z,18.40
2018-06-14T07:44:38.924Z,18.60
2018-06-14T07:47:10.581Z,18.70
2018-06-14T07:49:39.465Z,18.80
2018-06-14T07:52:12.968Z,18.90
2018-06-14T07:54:42.609Z,19.00
2018-06-14T07:57:11.263Z,19.10
2018-06-14T08:02:44.783Z,19.30
2018-06-14T08:05:33.223Z,19.40
2018-06-14T08:08:06.643Z,19.60
2018-06-14T08:10:37.475Z,19.80
2018-06-14T08:13:12.763Z,20.10
2018-06-14T08:15:41.541Z,20.40
2018-06-14T08:18:10.197Z,20.50
2018-06-14T08:20:39.637Z,20.80
2018-06-14T08:23:09.494Z,21.10
2018-06-14T08:25:49.955Z,21.40
2018-06-14T08:28:18.473Z,21.60
2018-06-14T08:30:57.257Z,22.00
2018-06-14T08:36:09.434Z,22.20
2018-06-14T08:38:39.063Z,22.10
2018-06-14T08:44:06.235Z,21.70
2018-06-14T08:46:41.313Z,21.70
2018-06-14T08:49:10.081Z,21.60
2018-06-14T08:54:10.172Z,21.50
2018-06-14T08:56:39.807Z,21.50
2018-06-14T08:59:13.999Z,21.50
2018-06-14T09:01:46.639Z,21.60
2018-06-14T09:04:19.633Z,21.50
2018-06-14T09:06:55.103Z,21.50
2018-06-14T09:09:30.219Z,21.60
2018-06-14T09:12:03.292Z,21.60
2018-06-14T09:14:45.617Z,21.80
2018-06-14T09:17:22.009Z,21.90
2018-06-14T09:19:56.405Z,22.10
2018-06-14T09:25:31.998Z,22.10
2018-06-14T09:28:06.907Z,22.20
2018-06-14T09:33:28.314Z,22.40
2018-06-14T09:36:17.411Z,22.60
2018-06-14T09:38:48.262Z,22.70
2018-06-14T09:41:22.576Z,22.50
2018-06-14T09:43:53.136Z,22.40
2018-06-14T09:46:29.457Z,22.40
2018-06-14T09:49:14.541Z,22.40
2018-06-14T09:51:49.279Z,22.50
2018-06-14T09:54:18.928Z,22.50
2018-06-14T09:56:55.522Z,22.70
2018-06-14T09:59:24.293Z,22.50
2018-06-14T10:01:59.353Z,22.50
2018-06-14T10:04:29.962Z,22.70
2018-06-14T10:07:05.977Z,22.70
2018-06-14T10:09:35.601Z,23.00
2018-06-14T10:12:05.323Z,23.00
2018-06-14T10:14:37.309Z,22.90
2018-06-14T10:17:13.013Z,22.90
2018-06-14T10:19:49.400Z,22.80
2018-06-14T10:22:27.551Z,22.90
2018-06-14T10:24:58.181Z,22.90
2018-06-14T10:27:33.513Z,22.80
2018-06-14T10:30:13.333Z,22.70
2018-06-14T10:32:46.963Z,22.70
2018-06-14T10:35:19.321Z,22.80
2018-06-14T10:37:48.023Z,22.90
2018-06-14T10:40:17.640Z,23.10
2018-06-14T10:42:52.398Z,23.30
2018-06-14T10:45:21.138Z,23.60
2018-06-14T10:47:51.666Z,23.60
2018-06-14T10:50:26.386Z,23.50
2018-06-14T10:52:58.658Z,23.60
2018-06-14T10:55:27.579Z,23.60
2018-06-14T10:57:56.263Z,23.60
2018-06-14T11:03:27.671Z,23.60
2018-06-14T11:05:56.423Z,23.50
2018-06-14T11:11:18.399Z,23.60
2018-06-14T11:13:54.712Z,23.40
2018-06-14T11:16:34.470Z,23.40
2018-06-14T11:19:20.547Z,23.40
2018-06-14T11:21:56.411Z,23.50
2018-06-14T11:24:26.073Z,23.20
2018-06-14T11:26:59.343Z,23.10
2018-06-14T11:29:28.931Z,23.10
2018-06-14T11:31:57.632Z,22.90
2018-06-14T11:34:26.349Z,22.70
2018-06-14T11:36:55.041Z,22.50
2018-06-14T11:39:28.033Z,22.20
2018-06-14T11:41:56.667Z,22.10
2018-06-14T11:44:26.253Z,21.90
2018-06-14T11:46:55.046Z,21.70
2018-06-14T11:49:24.581Z,21.60
2018-06-14T11:51:53.226Z,21.60
2018-06-14T11:54:21.968Z,21.60
2018-06-14T11:56:50.651Z,21.60
2018-06-14T11:59:19.300Z,21.40
2018-06-14T12:01:47.997Z,21.30
2018-06-14T12:04:16.646Z,21.20
2018-06-14T12:06:45.453Z,21.00
2018-06-14T12:09:16.246Z,20.90
2018-06-14T12:11:45.909Z,20.80
2018-06-14T12:14:15.558Z,20.70
2018-06-14T12:16:51.120Z,20.70
2018-06-14T12:19:21.811Z,20.60
2018-06-14T12:21:56.549Z,20.40
2018-06-14T12:24:29.507Z,20.40
2018-06-14T12:26:59.163Z,20.40
2018-06-14T12:29:29.685Z,20.50
2018-06-14T12:32:06.385Z,20.50
2018-06-14T12:34:44.863Z,20.60
2018-06-14T12:37:20.280Z,20.70
2018-06-14T12:39:49.933Z,20.80
2018-06-14T12:45:18.940Z,20.70
2018-06-14T12:48:01.682Z,20.70
2018-06-14T12:50:30.479Z,20.60
2018-06-14T12:52:59.151Z,20.40
2018-06-14T12:55:29.663Z,20.30
2018-06-14T12:57:58.377Z,20.10
2018-06-14T13:00:27.067Z,20.00
2018-06-14T13:02:55.762Z,19.90
2018-06-14T13:05:30.529Z,19.70
2018-06-14T13:08:02.373Z,19.60
2018-06-14T13:10:48.075Z,19.60
2018-06-14T13:13:23.605Z,19.60
2018-06-14T13:18:37.638Z,19.50
2018-06-14T13:21:06.335Z,19.50
2018-06-14T13:23:37.290Z,19.40
2018-06-14T13:26:09.266Z,19.50
2018-06-14T13:31:26.157Z,19.40
2018-06-14T13:34:04.419Z,19.40
2018-06-14T13:36:37.734Z,19.50
2018-06-14T13:41:59.175Z,19.50
2018-06-14T13:44:28.796Z,19.50
2018-06-14T13:47:04.137Z,19.70
2018-06-14T13:49:48.686Z,19.60
2018-06-14T13:52:22.136Z,19.50
2018-06-14T13:54:56.331Z,19.50
2018-06-14T13:57:25.944Z,19.60
2018-06-14T13:59:55.560Z,19.90
2018-06-14T14:02:24.244Z,20.00
2018-06-14T14:04:55.040Z,20.00
2018-06-14T14:07:46.107Z,20.00
2018-06-14T14:10:14.939Z,20.20
2018-06-14T14:12:48.497Z,20.40
2018-06-14T14:15:37.296Z,20.50
2018-06-14T14:18:12.818Z,20.70
2018-06-14T14:20:41.700Z,20.90
2018-06-14T14:23:19.708Z,21.00
2018-06-14T14:25:48.536Z,20.80
2018-06-14T14:28:17.401Z,20.80
2018-06-14T14:30:56.833Z,20.70
2018-06-14T14:33:32.356Z,20.90
2018-06-14T14:36:01.049Z,20.90
2018-06-14T14:38:31.752Z,20.90
2018-06-14T14:41:07.785Z,21.00
2018-06-14T14:43:38.376Z,20.90
2018-06-14T14:46:06.996Z,21.20
2018-06-14T14:48:36.682Z,21.30
2018-06-14T14:51:12.667Z,21.40
2018-06-14T14:53:52.448Z,21.60
2018-06-14T14:56:22.981Z,21.70
2018-06-14T15:01:50.186Z,21.80
2018-06-14T15:04:31.124Z,21.40
2018-06-14T15:07:00.785Z,21.00
2018-06-14T15:09:29.396Z,20.70
2018-06-14T15:12:04.891Z,20.50
2018-06-14T15:14:34.521Z,20.40
2018-06-14T15:17:11.103Z,20.20
2018-06-14T15:22:36.467Z,20.40
2018-06-14T15:25:18.657Z,20.40
2018-06-14T15:27:56.524Z,20.50
2018-06-14T15:30:26.223Z,20.40
2018-06-14T15:32:55.088Z,20.20
2018-06-14T15:35:24.760Z,20.30
2018-06-14T15:37:54.398Z,20.20
2018-06-14T15:40:35.046Z,20.10
2018-06-14T15:43:08.994Z,19.90
2018-06-14T15:45:38.006Z,19.90
2018-06-14T15:50:39.492Z,19.80
2018-06-14T15:53:08.909Z,19.70
2018-06-14T15:56:01.665Z,19.60
2018-06-14T16:04:02.431Z,19.30
2018-06-14T16:06:37.177Z,19.30
2018-06-14T16:09:08.863Z,19.10
2018-06-14T16:11:38.304Z,18.90
2018-06-14T16:14:07.443Z,18.90
2018-06-14T16:16:36.852Z,18.90
2018-06-14T16:19:07.419Z,18.80
2018-06-14T16:21:37.028Z,18.70
2018-06-14T16:26:46.439Z,18.50
2018-06-14T16:29:21.515Z,18.40
2018-06-14T16:31:51.185Z,18.40
2018-06-14T16:34:19.795Z,18.40
2018-06-14T16:37:02.575Z,18.40
2018-06-14T16:39:32.235Z,18.50
2018-06-14T16:42:01.832Z,18.40
2018-06-14T16:44:33.430Z,18.40
2018-06-14T16:47:05.033Z,18.30
2018-06-14T16:49:33.731Z,18.30
2018-06-14T16:52:03.528Z,18.20
2018-06-14T16:54:32.103Z,18.20
2018-06-14T16:57:02.529Z,18.20
2018-06-14T16:59:41.357Z,18.20
2018-06-14T17:02:15.328Z,18.30
2018-06-14T17:04:45.019Z,18.40
2018-06-14T17:07:13.585Z,18.40
2018-06-14T17:09:47.314Z,18.40
2018-06-14T17:12:15.902Z,18.50
2018-06-14T17:14:46.708Z,18.60
2018-06-14T17:17:15.412Z,18.60
2018-06-14T17:19:49.083Z,18.50
2018-06-14T17:22:21.726Z,18.40
2018-06-14T17:24:50.380Z,18.40
2018-06-14T17:30:23.966Z,18.40
2018-06-14T17:33:04.651Z,18.40
2018-06-14T17:35:33.035Z,18.40
2018-06-14T17:38:24.156Z,18.30
2018-06-14T17:40:58.699Z,18.20
2018-06-14T17:43:31.251Z,18.20
2018-06-14T17:46:06.525Z,18.20
2018-06-14T17:48:43.480Z,18.30
2018-06-14T17:51:25.630Z,18.20
2018-06-14T17:54:00.200Z,18.20
2018-06-14T17:56:33.602Z,18.10
2018-06-14T17:59:08.639Z,17.90
2018-06-14T18:01:42.583Z,17.90
2018-06-14T18:04:26.892Z,17.80
2018-06-14T18:06:59.912Z,17.80
2018-06-14T18:09:30.438Z,17.80
2018-06-14T18:12:00.150Z,17.80
2018-06-14T18:14:50.549Z,17.80
2018-06-14T18:17:26.299Z,17.80
2018-06-14T18:22:49.531Z,17.80
2018-06-14T18:25:21.266Z,17.70
2018-06-14T18:27:50.936Z,17.70
2018-06-14T18:30:29.041Z,17.60
2018-06-14T18:33:13.355Z,17.60
2018-06-14T18:35:48.847Z,17.60
2018-06-14T18:38:19.491Z,17.60
2018-06-14T18:41:04.060Z,17.50
2018-06-14T18:43:36.380Z,17.50
2018-06-14T18:46:09.082Z,17.50
2018-06-14T18:51:37.216Z,17.40
2018-06-14T18:54:09.562Z,17.40
2018-06-14T18:56:44.309Z,17.50
2018-06-14T19:04:52.846Z,17.60
2018-06-14T19:07:24.986Z,17.60
2018-06-14T19:09:57.452Z,17.60
2018-06-14T19:12:26.906Z,17.50
2018-06-14T19:14:59.413Z,17.60
2018-06-14T19:17:28.015Z,17.60
2018-06-14T19:19:58.572Z,17.60
2018-06-14T19:22:41.751Z,17.60
2018-06-14T19:25:11.363Z,17.60
2018-06-14T19:27:39.942Z,17.50
2018-06-14T19:30:09.504Z,17.60
2018-06-14T19:32:38.359Z,17.60
2018-06-14T19:35:06.956Z,17.60
2018-06-14T19:37:37.442Z,17.60
2018-06-14T19:40:18.756Z,17.50
2018-06-14T19:42:53.256Z,17.50
2018-06-14T19:45:23.804Z,17.50
2018-06-14T19:47:55.900Z,17.50
2018-06-14T19:50:25.244Z,17.50
2018-06-14T19:52:55.646Z,17.40
2018-06-14T19:55:42.792Z,17.40
2018-06-14T19:58:14.887Z,17.30
2018-06-14T20:00:43.570Z,17.20
2018-06-14T20:03:12.216Z,17.20
2018-06-14T20:05:40.910Z,17.30
2018-06-14T20:08:10.603Z,17.40
2018-06-14T20:10:40.119Z,17.30
2018-06-14T20:13:11.897Z,17.40
2018-06-14T20:15:46.109Z,17.40
2018-06-14T20:18:18.262Z,17.30
2018-06-14T20:20:51.306Z,17.30
2018-06-14T20:23:24.184Z,17.30
2018-06-14T20:25:54.712Z,17.30
2018-06-14T20:28:23.560Z,17.30
2018-06-14T20:30:52.250Z,17.20
2018-06-14T20:33:20.740Z,17.20
2018-06-14T20:35:52.630Z,17.20
2018-06-14T20:38:38.995Z,17.30
2018-06-14T20:41:08.688Z,17.20
2018-06-14T20:46:18.917Z,17.20
2018-06-14T20:49:06.931Z,17.20
2018-06-14T20:54:33.494Z,17.10
2018-06-14T20:57:02.228Z,17.10
2018-06-14T20:59:42.490Z,17.00
2018-06-14T21:02:22.024Z,17.00
2018-06-14T21:04:57.985Z,17.00
2018-06-14T21:10:20.888Z,17.00
2018-06-14T21:12:50.590Z,17.00
2018-06-14T21:15:24.758Z,17.00
2018-06-14T21:17:53.390Z,17.00
2018-06-14T21:20:21.818Z,16.90
2018-06-14T21:23:01.863Z,16.90
2018-06-14T21:25:31.453Z,16.80
2018-06-14T21:28:01.958Z,16.70
2018-06-14T21:30:40.195Z,16.60
2018-06-14T21:33:08.545Z,16.50
2018-06-14T21:35:44.156Z,16.50
2018-06-14T21:41:06.116Z,16.40
2018-06-14T21:43:46.933Z,16.50
2018-06-14T21:46:37.753Z,16.50
2018-06-14T21:49:06.286Z,16.60
2018-06-14T21:51:36.640Z,16.60
2018-06-14T21:54:05.062Z,16.60
2018-06-14T21:56:41.082Z,16.70
2018-06-14T21:59:12.842Z,16.70
2018-06-14T22:01:42.468Z,16.70
2018-06-14T22:04:14.856Z,16.70
2018-06-14T22:07:01.665Z,16.70
2018-06-14T22:09:35.826Z,16.70
2018-06-14T22:12:18.087Z,16.70
2018-06-14T22:15:03.619Z,16.70
2018-06-14T22:17:32.070Z,16.70
2018-06-14T22:20:04.479Z,16.60
2018-06-14T22:25:39.844Z,16.70
2018-06-14T22:31:23.980Z,16.60
2018-06-14T22:34:04.692Z,16.50
2018-06-14T22:36:39.754Z,16.50
2018-06-14T22:39:08.408Z,16.50
2018-06-14T22:41:38.984Z,16.50
2018-06-14T22:44:13.485Z,16.40
2018-06-14T22:46:48.948Z,16.40
2018-06-14T22:49:17.626Z,16.40
2018-06-14T22:52:54.120Z,16.40
2018-06-14T22:55:28.136Z,16.40
2018-06-14T22:58:00.808Z,16.30
2018-06-14T23:00:48.042Z,16.30
2018-06-14T23:03:28.870Z,16.30
2018-06-14T23:09:03.426Z,16.30
2018-06-14T23:11:36.430Z,16.20
2018-06-14T23:14:07.001Z,16.10
2018-06-14T23:16:35.666Z,16.10
2018-06-14T23:19:05.240Z,16.00
2018-06-14T23:21:41.592Z,16.00
2018-06-14T23:24:29.368Z,15.90
2018-06-14T23:26:58.951Z,15.80
2018-06-14T23:29:28.562Z,15.80
2018-06-14T23:35:00.051Z,15.70
2018-06-14T23:37:45.297Z,15.60
2018-06-14T23:40:25.968Z,15.60
2018-06-14T23:43:09.103Z,15.60
2018-06-14T23:45:37.516Z,15.50
2018-06-14T23:48:09.887Z,15.50
2018-06-14T23:50:44.059Z,15.50
2018-06-14T23:53:16.535Z,15.50
2018-06-14T23:55:52.815Z,15.40
2018-06-14T23:58:28.034Z,15.40
